Time;durP1;ratioP1;P1;durP2;ratioP2;P2;SDS_P1;SDS_P2;PMS_P1;PMS_P2;Temp;Humidity;BMP_temperature;BMP_pressure;BME280_temperature;BME280_humidity;BME280_pressure;Samples;Min_cycle;Max_cycle;Signal;HPM_P1;HPM_P2
2022/03/28 00:01:10;;;;;;;25.90;12.48;;;6.20;99.90;;;;;;5113538;28;20043;-73
2022/03/28 00:03:37;;;;;;;19.70;13.25;;;6.10;99.90;;;;;;5112276;28;20044;-73
2022/03/28 00:06:03;;;;;;;38.17;13.68;;;6.10;99.90;;;;;;5095466;28;20384;-73
2022/03/28 00:08:30;;;;;;;42.45;15.00;;;6.10;99.90;;;;;;5094857;28;20039;-73
2022/03/28 00:10:56;;;;;;;39.17;13.40;;;6.10;99.90;;;;;;5112692;28;20103;-73
2022/03/28 00:13:22;;;;;;;23.13;14.38;;;6.10;99.90;;;;;;5095012;28;20075;-73
2022/03/28 00:15:48;;;;;;;47.28;16.05;;;6.10;99.90;;;;;;5113485;28;20032;-73
2022/03/28 00:18:14;;;;;;;27.33;14.63;;;6.10;99.90;;;;;;5112451;28;20044;-73
2022/03/28 00:20:40;;;;;;;19.52;12.98;;;6.10;99.90;;;;;;5113393;28;20043;-73
2022/03/28 00:23:06;;;;;;;29.77;12.55;;;6.10;99.90;;;;;;5095622;28;20051;-73
2022/03/28 00:25:32;;;;;;;41.35;13.73;;;6.10;99.90;;;;;;5098789;28;20101;-73
2022/03/28 00:27:58;;;;;;;23.02;10.82;;;6.10;99.90;;;;;;5098764;28;20036;-73
2022/03/28 00:30:25;;;;;;;53.63;13.10;;;6.10;99.90;;;;;;5097534;28;20118;-73
2022/03/28 00:32:50;;;;;;;42.78;12.80;;;6.10;99.90;;;;;;5116829;28;20065;-73
2022/03/28 00:35:17;;;;;;;17.95;12.77;;;6.10;99.90;;;;;;5117003;28;20043;-73
2022/03/28 00:37:43;;;;;;;20.65;12.20;;;6.10;99.90;;;;;;5097442;28;20051;-73
2022/03/28 00:40:10;;;;;;;27.15;9.95;;;6.10;99.90;;;;;;5116977;28;20097;-73
2022/03/28 00:42:37;;;;;;;16.60;9.60;;;6.10;99.90;;;;;;5098214;28;20486;-73
2022/03/28 00:45:07;;;;;;;12.25;10.18;;;6.10;99.90;;;;;;5097702;28;20108;-73
2022/03/28 00:47:33;;;;;;;35.20;9.65;;;6.10;99.90;;;;;;5081134;28;20047;-73
2022/03/28 00:49:59;;;;;;;23.80;9.32;;;6.10;99.90;;;;;;5098083;28;20099;-74
2022/03/28 00:52:25;;;;;;;18.40;9.02;;;6.10;99.90;;;;;;5115502;28;20078;-73
2022/03/28 00:54:51;;;;;;;31.92;9.77;;;6.10;99.90;;;;;;5116633;28;20107;-73
2022/03/28 00:57:17;;;;;;;19.50;10.43;;;6.10;99.90;;;;;;5116160;28;20492;-73
2022/03/28 00:59:43;;;;;;;14.70;8.82;;;6.10;99.90;;;;;;5115488;28;20364;-73
2022/03/28 01:02:10;;;;;;;15.38;8.85;;;6.10;99.90;;;;;;5116134;28;20115;-73
2022/03/28 01:04:38;;;;;;;29.52;9.20;;;6.10;99.90;;;;;;5098349;28;20043;-73
2022/03/28 01:07:08;;;;;;;44.83;10.52;;;6.10;99.90;;;;;;5076616;28;20044;-73
2022/03/28 01:09:34;;;;;;;12.55;8.98;;;6.10;99.90;;;;;;5077820;28;20043;-73
2022/03/28 01:12:01;;;;;;;24.98;9.63;;;6.10;99.90;;;;;;5087191;28;20122;-73
2022/03/28 01:14:27;;;;;;;21.10;9.38;;;6.10;99.90;;;;;;5115419;28;20044;-73
2022/03/28 01:19:37;;;;;;;40.03;8.35;;;6.20;99.90;;;;;;5114806;28;20487;-73
2022/03/28 01:22:03;;;;;;;19.63;9.15;;;6.10;99.90;;;;;;5097633;28;20097;-73
2022/03/28 01:24:30;;;;;;;19.48;8.10;;;6.10;99.90;;;;;;5115668;28;20032;-73
2022/03/28 01:26:58;;;;;;;22.10;7.93;;;6.10;99.90;;;;;;5096925;28;20062;-73
2022/03/28 01:29:25;;;;;;;22.42;9.57;;;6.10;99.90;;;;;;5097281;28;20047;-73
2022/03/28 01:31:51;;;;;;;13.90;9.07;;;6.10;99.90;;;;;;5115916;28;20043;-73
2022/03/28 01:34:18;;;;;;;36.25;9.38;;;6.10;99.90;;;;;;5114377;28;20028;-73
2022/03/28 01:36:47;;;;;;;13.05;7.65;;;6.10;99.90;;;;;;5115306;28;20402;-73
2022/03/28 01:39:14;;;;;;;12.27;7.05;;;6.10;99.90;;;;;;5115500;28;20104;-73
2022/03/28 01:41:39;;;;;;;23.45;8.95;;;6.00;99.90;;;;;;5114274;28;20044;-73
2022/03/28 01:44:05;;;;;;;21.02;7.45;;;6.00;99.90;;;;;;5115170;28;20065;-73
2022/03/28 01:46:38;;;;;;;11.77;7.95;;;6.00;99.90;;;;;;5115494;28;20044;-73
2022/03/28 01:49:04;;;;;;;13.50;7.70;;;6.00;99.90;;;;;;5114287;28;20040;-73
2022/03/28 01:51:31;;;;;;;10.63;7.05;;;6.00;99.90;;;;;;5093414;28;20048;-73
2022/03/28 01:53:59;;;;;;;13.88;8.07;;;5.90;99.90;;;;;;5095163;28;20044;-73
2022/03/28 01:56:26;;;;;;;10.60;8.05;;;5.90;99.90;;;;;;5095756;28;20048;-73
2022/03/28 01:58:52;;;;;;;12.65;8.18;;;5.90;99.90;;;;;;5097029;28;20074;-73
2022/03/28 02:01:18;;;;;;;11.73;8.63;;;5.90;99.90;;;;;;5096821;28;20125;-73
2022/03/28 02:03:43;;;;;;;14.52;8.10;;;5.90;99.90;;;;;;5114515;28;20047;-73
2022/03/28 02:06:09;;;;;;;15.15;8.55;;;5.90;99.90;;;;;;5096801;28;20054;-73
2022/03/28 02:08:35;;;;;;;18.73;10.38;;;5.90;99.90;;;;;;5115205;28;20433;-73
2022/03/28 02:11:01;;;;;;;20.52;9.45;;;6.00;99.90;;;;;;5114315;28;20054;-73
2022/03/28 02:13:27;;;;;;;15.68;8.80;;;6.00;99.90;;;;;;5096966;28;20043;-73
2022/03/28 02:15:52;;;;;;;24.35;9.38;;;6.00;99.90;;;;;;5095629;28;20101;-73
2022/03/28 02:18:18;;;;;;;16.52;9.23;;;6.00;99.90;;;;;;5114532;28;20130;-74
2022/03/28 02:20:44;;;;;;;14.27;7.95;;;5.90;99.90;;;;;;5114609;28;20051;-73
2022/03/28 02:23:10;;;;;;;13.60;8.52;;;5.90;99.90;;;;;;5113589;28;20097;-73
2022/03/28 02:25:37;;;;;;;14.45;8.60;;;5.90;99.90;;;;;;5114657;28;20038;-73
2022/03/28 02:28:04;;;;;;;19.83;9.70;;;5.90;99.90;;;;;;5096195;28;20117;-74
2022/03/28 02:30:30;;;;;;;20.27;9.30;;;5.90;99.90;;;;;;5078305;28;20093;-74
2022/03/28 02:32:57;;;;;;;23.08;8.68;;;5.80;99.90;;;;;;5096161;28;20035;-73
2022/03/28 02:35:23;;;;;;;11.50;7.57;;;5.80;99.90;;;;;;5096479;28;20051;-74
2022/03/28 02:37:49;;;;;;;19.67;9.38;;;5.80;99.90;;;;;;5113380;28;20043;-74
2022/03/28 02:40:15;;;;;;;15.15;9.20;;;5.80;99.90;;;;;;5114567;28;20047;-74
2022/03/28 02:42:41;;;;;;;14.65;9.70;;;5.80;99.90;;;;;;5096031;28;20046;-74
2022/03/28 02:45:08;;;;;;;15.40;8.45;;;5.80;99.90;;;;;;5078234;28;20177;-73
2022/03/28 02:47:34;;;;;;;19.10;9.10;;;5.80;99.90;;;;;;5113170;28;20046;-73
2022/03/28 02:50:00;;;;;;;14.55;9.25;;;5.80;99.90;;;;;;5096222;28;20047;-74
2022/03/28 02:52:26;;;;;;;15.32;9.18;;;5.80;99.90;;;;;;5094881;28;20084;-74
2022/03/28 02:54:52;;;;;;;12.23;8.30;;;5.80;99.90;;;;;;5096285;28;20391;-74
2022/03/28 02:57:18;;;;;;;24.23;9.80;;;5.70;99.90;;;;;;5114068;28;20047;-74
2022/03/28 02:59:44;;;;;;;16.27;8.82;;;5.80;99.90;;;;;;5113550;28;20053;-73
2022/03/28 03:02:10;;;;;;;13.88;10.30;;;5.70;99.90;;;;;;5096036;28;20394;-73
2022/03/28 03:04:36;;;;;;;15.73;11.00;;;5.70;99.90;;;;;;5095601;28;20054;-74
2022/03/28 03:07:02;;;;;;;15.23;9.90;;;5.70;99.90;;;;;;5113237;28;20104;-73
2022/03/28 03:09:28;;;;;;;19.45;10.70;;;5.70;99.90;;;;;;5113724;28;20039;-74
2022/03/28 03:11:54;;;;;;;17.55;10.50;;;5.70;99.90;;;;;;5095665;28;20088;-74
2022/03/28 03:14:20;;;;;;;19.88;10.55;;;5.70;99.90;;;;;;5095491;28;20114;-74
2022/03/28 03:16:46;;;;;;;21.35;10.45;;;5.70;99.90;;;;;;5095578;28;20044;-74
2022/03/28 03:19:11;;;;;;;19.02;9.57;;;5.80;99.90;;;;;;5112606;28;20050;-74
2022/03/28 03:21:38;;;;;;;17.90;10.50;;;5.70;99.90;;;;;;5095756;28;20043;-74
2022/03/28 03:24:05;;;;;;;22.00;10.30;;;5.70;99.90;;;;;;5095164;28;20048;-74
2022/03/28 03:26:31;;;;;;;17.23;9.85;;;5.70;99.90;;;;;;5094920;28;20047;-74
2022/03/28 03:28:58;;;;;;;17.15;10.07;;;5.70;99.90;;;;;;5095278;28;20502;-74
2022/03/28 03:31:25;;;;;;;14.63;9.43;;;5.80;99.90;;;;;;5113861;28;20119;-73
2022/03/28 03:33:51;;;;;;;15.50;9.52;;;5.70;99.90;;;;;;5094821;28;20085;-73
2022/03/28 03:36:17;;;;;;;17.50;10.25;;;5.70;99.90;;;;;;5095640;28;20039;-74
2022/03/28 03:38:43;;;;;;;12.73;9.75;;;5.60;99.90;;;;;;5095445;28;20040;-73
2022/03/28 03:41:09;;;;;;;17.95;10.43;;;5.60;99.90;;;;;;5094493;28;20384;-73
2022/03/28 03:43:34;;;;;;;14.25;10.25;;;5.60;99.90;;;;;;5113519;28;20059;-74
2022/03/28 03:46:00;;;;;;;13.73;9.57;;;5.60;99.90;;;;;;5095581;28;20395;-74
2022/03/28 03:48:27;;;;;;;21.20;11.02;;;5.60;99.90;;;;;;5112566;28;20458;-73
2022/03/28 03:50:53;;;;;;;13.27;9.95;;;5.60;99.90;;;;;;5113483;28;20070;-74
2022/03/28 03:53:20;;;;;;;18.10;10.57;;;5.60;99.90;;;;;;5095356;28;20086;-73
2022/03/28 03:55:48;;;;;;;15.45;9.82;;;5.60;99.90;;;;;;5112910;28;20048;-74
2022/03/28 03:58:14;;;;;;;11.55;9.50;;;5.60;99.90;;;;;;5114448;28;20447;-74
2022/03/28 04:00:41;;;;;;;15.20;9.65;;;5.60;99.90;;;;;;5117575;28;20098;-74
2022/03/28 04:03:07;;;;;;;15.20;10.18;;;5.60;99.90;;;;;;5116677;28;20051;-73
2022/03/28 04:05:34;;;;;;;14.07;11.00;;;5.60;99.90;;;;;;5117407;28;20043;-74
2022/03/28 04:08:00;;;;;;;15.07;9.93;;;5.60;99.90;;;;;;5117097;28;20116;-74
2022/03/28 04:10:26;;;;;;;13.93;10.73;;;5.60;99.90;;;;;;5098607;28;20043;-74
2022/03/28 04:12:52;;;;;;;13.75;10.82;;;5.60;99.90;;;;;;5117005;28;20078;-73
2022/03/28 04:15:18;;;;;;;17.00;11.65;;;5.60;99.90;;;;;;5098268;28;20082;-74
2022/03/28 04:17:45;;;;;;;19.98;12.50;;;5.60;99.90;;;;;;5117139;28;20077;-74
2022/03/28 04:20:13;;;;;;;16.20;11.00;;;5.50;99.90;;;;;;5098916;28;20181;-74
2022/03/28 04:22:40;;;;;;;17.33;11.88;;;5.60;99.90;;;;;;5097691;28;20486;-73
2022/03/28 04:25:08;;;;;;;13.43;11.55;;;5.50;99.90;;;;;;5117151;28;20050;-73
2022/03/28 04:27:35;;;;;;;20.25;11.48;;;5.50;99.90;;;;;;5098385;28;20047;-74
2022/03/28 04:30:06;;;;;;;20.17;11.27;;;5.50;99.90;;;;;;5098221;28;20039;-74
2022/03/28 04:32:33;;;;;;;16.45;12.18;;;5.50;99.90;;;;;;5116681;28;20108;-73
2022/03/28 04:34:59;;;;;;;15.13;11.20;;;5.50;99.90;;;;;;5081876;28;20039;-73
2022/03/28 04:37:24;;;;;;;18.55;12.02;;;5.40;99.90;;;;;;5097425;28;20054;-74
2022/03/28 04:39:50;;;;;;;20.83;11.80;;;5.40;99.90;;;;;;5098642;28;20047;-73
2022/03/28 04:42:16;;;;;;;19.48;11.73;;;5.40;99.90;;;;;;5116255;28;20054;-73
2022/03/28 04:44:42;;;;;;;18.48;11.07;;;5.40;99.90;;;;;;5097583;28;20101;-73
2022/03/28 04:47:08;;;;;;;19.60;11.05;;;5.40;99.90;;;;;;5097958;28;20134;-74
2022/03/28 04:49:34;;;;;;;16.42;11.93;;;5.40;99.90;;;;;;5098159;28;20082;-74
2022/03/28 04:52:00;;;;;;;20.08;10.95;;;5.40;99.90;;;;;;5097338;28;20055;-73
2022/03/28 04:54:26;;;;;;;16.75;11.68;;;5.40;99.90;;;;;;5098435;28;20073;-74
2022/03/28 04:56:52;;;;;;;18.98;10.45;;;5.40;99.90;;;;;;5080864;28;20101;-74
2022/03/28 04:59:17;;;;;;;17.67;12.05;;;5.40;99.90;;;;;;5080192;28;20070;-74
2022/03/28 05:01:43;;;;;;;18.58;10.90;;;5.40;99.90;;;;;;5097656;28;20047;-74
2022/03/28 05:04:09;;;;;;;11.73;8.63;;;5.40;99.90;;;;;;5097840;28;20039;-74
2022/03/28 05:06:35;;;;;;;12.63;8.68;;;5.30;99.90;;;;;;5097290;28;20051;-74
2022/03/28 05:09:00;;;;;;;13.70;9.65;;;5.30;99.90;;;;;;5097950;28;20386;-74
2022/03/28 05:11:26;;;;;;;13.20;9.77;;;5.30;99.90;;;;;;5097204;28;20495;-74
2022/03/28 05:13:52;;;;;;;12.02;9.73;;;5.30;99.90;;;;;;5097116;28;20047;-74
2022/03/28 05:16:18;;;;;;;14.85;10.80;;;5.30;99.90;;;;;;5097457;28;20114;-73
2022/03/28 05:18:44;;;;;;;17.70;10.15;;;5.30;99.90;;;;;;5115319;28;20406;-73
2022/03/28 05:21:10;;;;;;;14.02;10.45;;;5.30;99.90;;;;;;5097384;28;20042;-74
2022/03/28 05:23:36;;;;;;;15.85;9.82;;;5.30;99.90;;;;;;5097829;28;20055;-74
2022/03/28 05:26:02;;;;;;;16.52;11.68;;;5.30;99.90;;;;;;5096915;28;20043;-74
2022/03/28 05:28:28;;;;;;;18.35;11.55;;;5.30;99.90;;;;;;5097556;28;20039;-74
2022/03/28 05:30:57;;;;;;;18.63;11.15;;;5.30;99.90;;;;;;5115770;28;20051;-74
2022/03/28 05:33:23;;;;;;;17.38;11.45;;;5.30;99.90;;;;;;5076387;28;20054;-73
2022/03/28 05:35:50;;;;;;;18.15;10.88;;;5.40;99.90;;;;;;5094288;28;20454;-74
2022/03/28 05:38:15;;;;;;;23.15;12.52;;;5.40;99.90;;;;;;5096699;28;20502;-74
2022/03/28 05:40:41;;;;;;;23.70;11.68;;;5.40;99.90;;;;;;5095238;28;20040;-74
2022/03/28 05:43:07;;;;;;;17.05;12.20;;;5.40;99.90;;;;;;5103372;28;20090;-74
2022/03/28 05:45:36;;;;;;;19.70;11.75;;;5.40;99.90;;;;;;5096727;28;20506;-73
2022/03/28 05:48:02;;;;;;;19.15;11.98;;;5.40;99.90;;;;;;5100261;28;20517;-74
2022/03/28 05:50:27;;;;;;;17.75;11.23;;;5.50;99.90;;;;;;5093732;28;20052;-73
2022/03/28 05:52:54;;;;;;;19.90;11.07;;;5.50;99.90;;;;;;5096903;28;20421;-74
2022/03/28 05:55:21;;;;;;;15.05;10.95;;;5.50;99.90;;;;;;5095911;28;20058;-74
2022/03/28 05:57:47;;;;;;;21.67;12.57;;;5.50;99.90;;;;;;5097047;28;20047;-74
2022/03/28 06:00:14;;;;;;;15.80;10.75;;;5.50;99.90;;;;;;5115146;28;20398;-74
2022/03/28 06:02:41;;;;;;;22.92;11.55;;;5.50;99.90;;;;;;5113944;28;20043;-74
2022/03/28 06:05:07;;;;;;;18.35;11.88;;;5.50;99.90;;;;;;5097023;28;20086;-74
2022/03/28 06:07:34;;;;;;;34.17;13.07;;;5.50;99.90;;;;;;5096966;28;20058;-74
2022/03/28 06:10:00;;;;;;;26.10;13.27;;;5.50;99.90;;;;;;5096107;28;20040;-75
2022/03/28 06:12:25;;;;;;;21.90;13.15;;;5.60;99.90;;;;;;5079472;28;20532;-74
2022/03/28 06:14:51;;;;;;;16.98;10.68;;;5.60;99.90;;;;;;5089379;28;20040;-74
2022/03/28 06:17:21;;;;;;;15.70;10.07;;;5.60;99.90;;;;;;5076608;28;20048;-74
2022/03/28 06:19:47;;;;;;;16.05;10.38;;;5.60;99.90;;;;;;5082003;28;20051;-73
2022/03/28 06:22:13;;;;;;;17.63;10.68;;;5.60;99.90;;;;;;5113794;28;20043;-73
2022/03/28 06:24:39;;;;;;;10.18;7.57;;;5.60;99.90;;;;;;5114655;28;20043;-73
2022/03/28 06:27:04;;;;;;;13.93;8.82;;;5.60;99.90;;;;;;5114874;28;20047;-73
2022/03/28 06:29:30;;;;;;;10.75;6.45;;;5.50;99.90;;;;;;5095380;28;20054;-73
2022/03/28 06:31:56;;;;;;;11.20;6.63;;;5.50;99.90;;;;;;5096123;28;20128;-74
2022/03/28 06:34:22;;;;;;;8.70;5.72;;;5.50;99.90;;;;;;5096028;28;20055;-74
2022/03/28 06:36:48;;;;;;;7.47;4.63;;;5.50;99.90;;;;;;5091054;28;20039;-74
2022/03/28 06:39:14;;;;;;;5.68;4.38;;;5.40;99.90;;;;;;5114293;28;20051;-74
2022/03/28 06:41:40;;;;;;;5.88;3.60;;;5.40;99.90;;;;;;5096205;28;20050;-74
2022/03/28 06:44:08;;;;;;;7.35;4.53;;;5.30;99.90;;;;;;5095457;28;20039;-73
2022/03/28 06:46:34;;;;;;;7.35;4.05;;;5.20;99.90;;;;;;5114191;28;20502;-74
2022/03/28 06:49:03;;;;;;;7.40;4.40;;;5.10;99.90;;;;;;5113093;28;20044;-73
2022/03/28 06:51:29;;;;;;;10.18;5.78;;;5.10;99.90;;;;;;5074646;28;20048;-73
2022/03/28 06:53:55;;;;;;;6.65;4.07;;;5.20;99.90;;;;;;5112325;28;20098;-73
2022/03/28 06:56:21;;;;;;;12.32;5.22;;;5.20;99.90;;;;;;5090171;28;20068;-73
2022/03/28 06:58:46;;;;;;;7.55;5.28;;;5.20;99.90;;;;;;5102319;28;20520;-74
2022/03/28 07:01:12;;;;;;;11.85;5.90;;;5.20;99.90;;;;;;5094917;28;20119;-74
2022/03/28 07:03:38;;;;;;;11.60;5.97;;;5.20;99.90;;;;;;5079009;28;20051;-73
2022/03/28 07:06:04;;;;;;;10.18;5.85;;;5.20;99.90;;;;;;5113024;28;20040;-74
2022/03/28 07:08:30;;;;;;;6.03;3.42;;;5.30;99.90;;;;;;5094913;28;20042;-74
2022/03/28 07:10:58;;;;;;;8.43;4.90;;;5.30;99.90;;;;;;5095533;28;20039;-73
2022/03/28 07:13:24;;;;;;;6.55;4.25;;;5.30;99.90;;;;;;5086878;28;20487;-73
2022/03/28 07:15:49;;;;;;;6.68;4.55;;;5.40;99.90;;;;;;5111168;28;20095;-73
2022/03/28 07:18:15;;;;;;;9.80;4.57;;;5.40;99.90;;;;;;5090796;28;20106;-73
2022/03/28 07:20:43;;;;;;;7.18;4.75;;;5.50;99.90;;;;;;5058186;28;20044;-74
2022/03/28 07:23:09;;;;;;;9.20;4.10;;;5.50;99.90;;;;;;5091238;28;20168;-74
2022/03/28 07:25:36;;;;;;;7.65;4.22;;;5.60;99.90;;;;;;5094132;28;20503;-74
2022/03/28 07:28:10;;;;;;;6.65;4.30;;;5.60;99.90;;;;;;5094832;28;20136;-73
2022/03/28 07:30:36;;;;;;;7.43;4.80;;;5.70;99.90;;;;;;5113273;28;20046;-74
2022/03/28 07:33:02;;;;;;;8.85;4.95;;;5.70;99.90;;;;;;5112911;28;20044;-73
2022/03/28 07:35:35;;;;;;;7.18;4.50;;;5.70;99.90;;;;;;5099772;28;20134;-74
2022/03/28 07:38:03;;;;;;;9.50;5.82;;;5.70;99.90;;;;;;5117617;28;20101;-73
2022/03/28 07:40:29;;;;;;;10.68;5.78;;;5.70;99.90;;;;;;5098456;28;20047;-74
2022/03/28 07:42:55;;;;;;;6.43;5.40;;;5.80;99.90;;;;;;5098958;28;20097;-73
2022/03/28 07:45:23;;;;;;;7.78;5.28;;;5.80;99.90;;;;;;5084983;28;20444;-73
2022/03/28 07:47:49;;;;;;;8.07;5.55;;;5.80;99.90;;;;;;5116558;28;20455;-73
2022/03/28 07:50:15;;;;;;;10.30;6.43;;;5.90;99.90;;;;;;5098676;28;20039;-73
2022/03/28 07:52:41;;;;;;;9.82;6.95;;;5.90;99.90;;;;;;5117690;28;20058;-74
2022/03/28 07:55:11;;;;;;;11.85;8.35;;;5.90;99.90;;;;;;5116604;28;20090;-73
2022/03/28 07:57:37;;;;;;;12.05;8.10;;;5.90;99.90;;;;;;5117114;28;20427;-73
2022/03/28 08:00:06;;;;;;;10.35;8.30;;;5.90;99.90;;;;;;5117021;28;20395;-73
2022/03/28 08:02:32;;;;;;;12.77;7.93;;;5.90;99.90;;;;;;5116143;28;20418;-73
2022/03/28 08:04:59;;;;;;;11.40;8.95;;;6.00;99.90;;;;;;5098791;28;20069;-73
2022/03/28 08:07:25;;;;;;;12.32;8.18;;;6.10;99.90;;;;;;5094560;28;20040;-73
2022/03/28 08:09:51;;;;;;;10.73;8.50;;;6.10;99.90;;;;;;5113373;28;20075;-73
2022/03/28 08:12:17;;;;;;;12.45;8.70;;;6.10;99.90;;;;;;5099808;28;20445;-73
2022/03/28 08:14:43;;;;;;;12.85;9.32;;;6.20;99.90;;;;;;5082769;28;20031;-73
2022/03/28 08:17:09;;;;;;;11.93;9.05;;;6.20;99.90;;;;;;5098743;28;20094;-73
2022/03/28 08:19:34;;;;;;;9.93;8.00;;;6.30;99.90;;;;;;5116798;28;20043;-73
2022/03/28 08:22:00;;;;;;;11.30;8.75;;;6.30;99.90;;;;;;5097770;28;20039;-73
2022/03/28 08:24:26;;;;;;;11.05;9.13;;;6.30;99.90;;;;;;5098411;28;20078;-73
2022/03/28 08:26:52;;;;;;;11.95;9.55;;;6.40;99.90;;;;;;5098699;28;20043;-73
2022/03/28 08:29:18;;;;;;;12.40;9.35;;;6.40;99.90;;;;;;5115722;28;20051;-73
2022/03/28 08:31:44;;;;;;;10.95;8.15;;;6.40;99.90;;;;;;5116726;28;20051;-73
2022/03/28 08:34:10;;;;;;;11.32;8.60;;;6.50;99.90;;;;;;5098191;28;20497;-73
2022/03/28 08:36:36;;;;;;;11.50;8.40;;;6.40;99.90;;;;;;5097549;28;20088;-73
2022/03/28 08:39:04;;;;;;;11.45;8.57;;;6.40;99.90;;;;;;5116100;28;20131;-73
2022/03/28 08:41:32;;;;;;;12.13;9.07;;;6.30;99.90;;;;;;5098062;28;20039;-73
2022/03/28 08:43:58;;;;;;;11.38;8.25;;;6.20;99.90;;;;;;5097296;28;20048;-73
2022/03/28 08:46:25;;;;;;;17.08;8.90;;;6.10;99.90;;;;;;5097863;28;20047;-72
2022/03/28 08:48:53;;;;;;;13.40;9.27;;;6.20;99.90;;;;;;5098545;28;20044;-73
2022/03/28 08:51:19;;;;;;;11.55;9.02;;;6.10;99.90;;;;;;5114960;28;20587;-73
2022/03/28 08:53:46;;;;;;;10.85;8.05;;;6.20;99.90;;;;;;5098307;28;20380;-72
2022/03/28 08:56:12;;;;;;;13.43;9.70;;;6.30;99.90;;;;;;5097537;28;20057;-73
2022/03/28 08:58:38;;;;;;;18.63;10.20;;;6.30;99.90;;;;;;5114935;28;20071;-73
2022/03/28 09:01:05;;;;;;;14.88;9.88;;;6.30;99.90;;;;;;5116023;28;20039;-73
2022/03/28 09:03:35;;;;;;;15.80;10.35;;;6.40;99.90;;;;;;5097507;28;20052;-73
2022/03/28 09:06:01;;;;;;;12.95;9.43;;;6.40;99.90;;;;;;5080951;28;20131;-73
2022/03/28 09:08:36;;;;;;;12.80;9.27;;;6.40;99.90;;;;;;5080938;28;20114;-73
2022/03/28 09:11:19;;;;;;;12.25;9.50;;;6.40;99.90;;;;;;5099283;28;20036;-73
2022/03/28 09:13:45;;;;;;;14.15;11.07;;;6.40;99.90;;;;;;5067168;28;20104;-73
2022/03/28 09:16:18;;;;;;;18.80;10.05;;;6.50;99.90;;;;;;5090121;28;20421;-73
2022/03/28 09:18:44;;;;;;;14.93;11.35;;;6.50;99.90;;;;;;5108267;28;20047;-73
2022/03/28 09:21:16;;;;;;;15.05;11.60;;;6.60;99.90;;;;;;5097514;28;20496;-73
2022/03/28 09:23:44;;;;;;;16.42;10.70;;;6.70;99.90;;;;;;5097546;28;20112;-73
2022/03/28 09:26:13;;;;;;;16.02;11.50;;;6.80;99.90;;;;;;5096445;28;20126;-73
2022/03/28 09:28:54;;;;;;;15.10;12.00;;;6.80;99.90;;;;;;5096936;28;20047;-73
2022/03/28 09:31:31;;;;;;;15.27;11.95;;;6.80;99.90;;;;;;5097034;28;20055;-73
2022/03/28 09:34:03;;;;;;;13.95;10.93;;;6.90;99.90;;;;;;5096618;28;20043;-72
2022/03/28 09:36:43;;;;;;;14.93;12.48;;;6.90;99.90;;;;;;5097418;28;20065;-73
2022/03/28 09:39:13;;;;;;;13.88;11.90;;;6.90;99.90;;;;;;5092191;28;20540;-73
2022/03/28 09:41:38;;;;;;;18.15;12.90;;;7.00;99.90;;;;;;5097803;28;20114;-73
2022/03/28 09:44:05;;;;;;;18.33;13.90;;;7.10;99.90;;;;;;5115199;28;20527;-72
2022/03/28 09:46:33;;;;;;;19.95;13.75;;;7.20;99.90;;;;;;5096450;28;20478;-73
2022/03/28 09:49:00;;;;;;;20.73;13.25;;;7.30;99.90;;;;;;5115352;28;20032;-73
2022/03/28 09:51:31;;;;;;;22.70;15.40;;;7.50;99.90;;;;;;5096994;28;20147;-73
2022/03/28 09:53:58;;;;;;;50.47;18.55;;;7.60;99.90;;;;;;5091654;28;20040;-73
2022/03/28 09:56:25;;;;;;;22.98;16.92;;;7.70;99.90;;;;;;5114535;28;20054;-73
2022/03/28 09:58:56;;;;;;;23.63;16.42;;;7.80;99.90;;;;;;5096606;28;20070;-72
2022/03/28 10:01:39;;;;;;;25.88;15.18;;;7.90;99.90;;;;;;5095908;28;20055;-72
2022/03/28 10:04:08;;;;;;;22.92;16.17;;;8.00;99.90;;;;;;5114709;28;20039;-73
2022/03/28 10:06:39;;;;;;;24.38;18.02;;;8.10;99.90;;;;;;5092676;28;20051;-73
2022/03/28 10:09:06;;;;;;;23.55;16.90;;;8.20;99.90;;;;;;5093826;28;20103;-73
2022/03/28 10:11:32;;;;;;;23.13;17.15;;;8.30;99.90;;;;;;5112984;28;20044;-72
2022/03/28 10:13:59;;;;;;;24.90;18.80;;;8.30;99.90;;;;;;5113941;28;20046;-72
2022/03/28 10:16:25;;;;;;;26.13;19.98;;;8.30;99.90;;;;;;5096636;28;20043;-73
2022/03/28 10:18:51;;;;;;;25.60;19.27;;;8.30;99.90;;;;;;5096742;28;20164;-73
2022/03/28 10:21:36;;;;;;;25.20;19.08;;;8.40;99.90;;;;;;5113688;28;20678;-73
2022/03/28 10:24:24;;;;;;;25.63;19.23;;;8.50;99.90;;;;;;5114529;28;20043;-73
2022/03/28 10:26:56;;;;;;;25.90;18.77;;;8.60;99.90;;;;;;5096335;28;20044;-73
2022/03/28 10:29:23;;;;;;;25.60;20.63;;;8.70;99.90;;;;;;5079033;28;20051;-73
2022/03/28 10:32:17;;;;;;;28.95;21.35;;;8.80;99.90;;;;;;5114418;28;20039;-73
2022/03/28 10:34:53;;;;;;;26.38;20.00;;;9.00;99.90;;;;;;5113963;28;20055;-73
2022/03/28 10:37:39;;;;;;;30.33;20.92;;;9.10;99.90;;;;;;5095497;28;20047;-73
2022/03/28 10:40:26;;;;;;;27.95;21.60;;;9.20;99.90;;;;;;5114078;28;20372;-72
2022/03/28 10:43:06;;;;;;;28.45;21.75;;;9.30;99.90;;;;;;5095194;28;20399;-72
2022/03/28 10:45:46;;;;;;;27.25;22.30;;;9.40;99.90;;;;;;5113871;28;20050;-73
2022/03/28 10:48:12;;;;;;;27.52;21.67;;;9.50;99.90;;;;;;5079013;28;20502;-73
2022/03/28 10:50:51;;;;;;;29.23;22.45;;;9.60;99.90;;;;;;5071292;28;20116;-72
2022/03/28 10:53:40;;;;;;;32.22;23.10;;;9.60;99.90;;;;;;5073509;28;20059;-73
2022/03/28 10:56:13;;;;;;;30.00;23.10;;;9.70;99.90;;;;;;5087852;28;20430;-73
2022/03/28 10:58:41;;;;;;;25.67;20.40;;;9.80;99.90;;;;;;5093744;28;20457;-73
2022/03/28 11:01:12;;;;;;;27.52;22.88;;;9.90;99.90;;;;;;5092424;28;20043;-73
2022/03/28 11:04:02;;;;;;;27.73;22.30;;;10.00;99.90;;;;;;5091875;28;20126;-73
2022/03/28 11:07:06;;;;;;;31.13;22.38;;;10.00;99.90;;;;;;5091986;28;20046;-73
2022/03/28 11:09:41;;;;;;;31.20;23.75;;;10.20;99.90;;;;;;5074812;28;20627;-73
2022/03/28 11:12:13;;;;;;;31.88;23.20;;;10.30;99.90;;;;;;5092455;28;20036;-73
2022/03/28 11:14:51;;;;;;;32.28;23.77;;;10.30;99.90;;;;;;5093163;28;20100;-73
2022/03/28 11:17:37;;;;;;;28.15;21.88;;;10.20;99.90;;;;;;5091218;28;20452;-72
2022/03/28 11:20:14;;;;;;;28.35;22.08;;;10.20;99.90;;;;;;5075359;28;20044;-73
2022/03/28 11:23:07;;;;;;;29.27;23.30;;;10.30;99.90;;;;;;5092151;28;20119;-72
2022/03/28 11:25:41;;;;;;;27.13;22.27;;;10.40;99.90;;;;;;5092669;28;20483;-73
2022/03/28 11:28:16;;;;;;;25.55;21.83;;;10.60;99.90;;;;;;5092119;28;20047;-72
2022/03/28 11:30:45;;;;;;;28.45;22.35;;;10.70;99.90;;;;;;5091903;28;20048;-72
2022/03/28 11:33:17;;;;;;;25.48;21.92;;;10.80;99.90;;;;;;5091300;28;20040;-72
2022/03/28 11:35:52;;;;;;;30.27;22.40;;;11.00;99.90;;;;;;5092454;28;20391;-72
2022/03/28 11:38:23;;;;;;;27.83;22.58;;;10.90;99.90;;;;;;5085483;28;20112;-72
2022/03/28 11:40:49;;;;;;;30.67;21.35;;;10.60;99.90;;;;;;5071945;28;20048;-72
2022/03/28 11:43:16;;;;;;;34.53;22.70;;;10.60;99.90;;;;;;5082634;28;20044;-72
2022/03/28 11:45:49;;;;;;;29.15;21.60;;;10.70;99.90;;;;;;5092263;28;20109;-72
2022/03/28 11:48:19;;;;;;;35.03;25.08;;;10.70;99.90;;;;;;5091910;28;20123;-72
2022/03/28 11:50:45;;;;;;;30.30;24.80;;;10.60;99.90;;;;;;5094909;28;20411;-72
2022/03/28 11:53:15;;;;;;;30.98;25.20;;;10.60;99.90;;;;;;5090777;28;20044;-72
2022/03/28 11:55:54;;;;;;;31.77;24.88;;;10.70;99.90;;;;;;5075086;28;20040;-72
2022/03/28 11:58:31;;;;;;;28.35;23.52;;;10.80;99.90;;;;;;5101304;28;20051;-72
2022/03/28 12:01:10;;;;;;;28.55;21.45;;;10.90;99.90;;;;;;5094294;28;20506;-72
2022/03/28 12:03:50;;;;;;;34.53;24.45;;;11.10;99.90;;;;;;5087409;28;20502;-72
2022/03/28 12:06:30;;;;;;;32.83;25.38;;;11.00;99.90;;;;;;5074825;28;20055;-72
2022/03/28 12:08:57;;;;;;;36.45;28.60;;;11.00;99.90;;;;;;5087326;28;20043;-72
2022/03/28 12:11:24;;;;;;;31.88;25.17;;;11.20;99.90;;;;;;5095448;28;20039;-72
2022/03/28 12:13:51;;;;;;;35.88;26.70;;;11.30;99.90;;;;;;5094211;28;20374;-72
2022/03/28 12:16:17;;;;;;;33.33;27.38;;;11.30;99.90;;;;;;5095260;28;20487;-72
2022/03/28 12:18:44;;;;;;;30.92;25.30;;;11.50;99.90;;;;;;5113480;28;20051;-72
2022/03/28 12:21:10;;;;;;;33.28;24.40;;;11.40;99.90;;;;;;5081176;28;20048;-72
2022/03/28 12:23:37;;;;;;;35.67;25.60;;;11.20;99.90;;;;;;5098617;28;20118;-72
2022/03/28 12:26:04;;;;;;;30.23;24.95;;;11.10;99.90;;;;;;5098180;28;20058;-72
2022/03/28 12:28:34;;;;;;;34.35;26.98;;;11.20;99.90;;;;;;5077586;28;20048;-72
2022/03/28 12:31:05;;;;;;;29.48;24.60;;;11.30;99.90;;;;;;5078688;28;20040;-72
2022/03/28 12:33:38;;;;;;;29.58;23.48;;;11.40;99.90;;;;;;5096429;28;20047;-72
2022/03/28 12:36:05;;;;;;;31.13;23.33;;;11.60;99.90;;;;;;5085118;28;20100;-72
2022/03/28 12:38:43;;;;;;;27.13;23.05;;;11.90;99.90;;;;;;5078397;28;20100;-72
2022/03/28 12:41:14;;;;;;;26.13;21.55;;;12.00;99.90;;;;;;5089168;28;20035;-72
2022/03/28 12:43:46;;;;;;;28.23;20.60;;;12.00;99.90;;;;;;5097476;28;20036;-72
2022/03/28 12:46:12;;;;;;;24.70;16.13;;;12.10;99.90;;;;;;5094739;28;20058;-72
2022/03/28 12:48:46;;;;;;;20.40;17.33;;;12.20;99.90;;;;;;5077802;28;20044;-72